sensor_id;sensor_type;location;lat;lon;timestamp;pressure;altitude;pressure_sealevel;temperature;humidity
4767;BME280;2397;53.576;9.746;2023-03-01T00:01:59;103168.34;;;-1.39;100.00
4767;BME280;2397;53.576;9.746;2023-03-01T00:04:26;103171.84;;;-1.30;100.00
4767;BME280;2397;53.576;9.746;2023-03-01T00:06:54;103174.09;;;-1.25;100.00
4767;BME280;2397;53.576;9.746;2023-03-01T00:09:20;103169.47;;;-1.29;100.00
4767;BME280;2397;53.576;9.746;2023-03-01T00:11:48;103175.56;;;-1.35;100.00
4767;BME280;2397;53.576;9.746;2023-03-01T00:14:14;103169.84;;;-1.42;100.00
4767;BME280;2397;53.576;9.746;2023-03-01T00:16:43;103170.44;;;-1.44;100.00
4767;BME280;2397;53.576;9.746;2023-03-01T00:19:16;103167.78;;;-1.37;100.00
4767;BME280;2397;53.576;9.746;2023-03-01T00:21:42;103167.94;;;-1.35;100.00
4767;BME280;2397;53.576;9.746;2023-03-01T00:24:09;103167.03;;;-1.36;100.00
4767;BME280;2397;53.576;9.746;2023-03-01T00:26:37;103165.09;;;-1.38;100.00
4767;BME280;2397;53.576;9.746;2023-03-01T00:29:03;103161.19;;;-1.44;100.00
4767;BME280;2397;53.576;9.746;2023-03-01T00:31:32;103164.16;;;-1.48;100.00
4767;BME280;2397;53.576;9.746;2023-03-01T00:34:01;103157.53;;;-1.54;100.00
4767;BME280;2397;53.576;9.746;2023-03-01T00:36:34;103159.03;;;-1.56;100.00
4767;BME280;2397;53.576;9.746;2023-03-01T00:39:02;103157.13;;;-1.50;100.00
4767;BME280;2397;53.576;9.746;2023-03-01T00:41:30;103158.81;;;-1.42;100.00
4767;BME280;2397;53.576;9.746;2023-03-01T00:43:57;103165.81;;;-1.39;100.00
4767;BME280;2397;53.576;9.746;2023-03-01T00:46:25;103162.53;;;-1.38;100.00
4767;BME280;2397;53.576;9.746;2023-03-01T00:48:53;103155.22;;;-1.35;100.00
4767;BME280;2397;53.576;9.746;2023-03-01T00:51:22;103152.50;;;-1.46;100.00
4767;BME280;2397;53.576;9.746;2023-03-01T00:53:53;103145.75;;;-1.54;100.00
4767;BME280;2397;53.576;9.746;2023-03-01T00:56:20;103146.53;;;-1.46;100.00
4767;BME280;2397;53.576;9.746;2023-03-01T00:58:46;103153.22;;;-1.55;100.00
4767;BME280;2397;53.576;9.746;2023-03-01T01:01:18;103152.50;;;-1.46;100.00
4767;BME280;2397;53.576;9.746;2023-03-01T01:03:51;103147.13;;;-1.49;100.00
4767;BME280;2397;53.576;9.746;2023-03-01T01:08:46;103156.13;;;-1.44;100.00
4767;BME280;2397;53.576;9.746;2023-03-01T01:11:12;103150.22;;;-1.51;100.00
4767;BME280;2397;53.576;9.746;2023-03-01T01:13:39;103147.88;;;-1.41;100.00
4767;BME280;2397;53.576;9.746;2023-03-01T01:16:06;103147.69;;;-1.51;100.00
4767;BME280;2397;53.576;9.746;2023-03-01T01:18:33;103144.41;;;-1.50;100.00
4767;BME280;2397;53.576;9.746;2023-03-01T01:21:10;103135.78;;;-1.44;100.00
4767;BME280;2397;53.576;9.746;2023-03-01T01:23:38;103143.22;;;-1.54;100.00
4767;BME280;2397;53.576;9.746;2023-03-01T01:26:11;103136.47;;;-1.62;100.00
4767;BME280;2397;53.576;9.746;2023-03-01T01:28:37;103132.72;;;-1.66;100.00
4767;BME280;2397;53.576;9.746;2023-03-01T01:31:04;103127.59;;;-1.74;100.00
4767;BME280;2397;53.576;9.746;2023-03-01T01:33:31;103125.03;;;-1.83;100.00
4767;BME280;2397;53.576;9.746;2023-03-01T01:35:58;103124.00;;;-1.77;100.00
4767;BME280;2397;53.576;9.746;2023-03-01T01:38:24;103126.94;;;-1.81;100.00
4767;BME280;2397;53.576;9.746;2023-03-01T01:40:51;103127.56;;;-1.83;100.00
4767;BME280;2397;53.576;9.746;2023-03-01T01:43:25;103118.41;;;-1.90;100.00
4767;BME280;2397;53.576;9.746;2023-03-01T01:45:57;103120.63;;;-1.93;100.00
4767;BME280;2397;53.576;9.746;2023-03-01T01:48:30;103112.06;;;-1.78;100.00
4767;BME280;2397;53.576;9.746;2023-03-01T01:51:11;103112.38;;;-1.74;100.00
4767;BME280;2397;53.576;9.746;2023-03-01T01:53:39;103115.84;;;-1.65;100.00
4767;BME280;2397;53.576;9.746;2023-03-01T01:56:08;103110.44;;;-1.68;100.00
4767;BME280;2397;53.576;9.746;2023-03-01T01:58:36;103104.75;;;-1.74;100.00
4767;BME280;2397;53.576;9.746;2023-03-01T02:01:04;103100.22;;;-1.86;100.00
4767;BME280;2397;53.576;9.746;2023-03-01T02:03:32;103101.66;;;-1.97;100.00
4767;BME280;2397;53.576;9.746;2023-03-01T02:06:12;103092.78;;;-1.75;100.00
4767;BME280;2397;53.576;9.746;2023-03-01T02:08:41;103096.25;;;-1.66;100.00
4767;BME280;2397;53.576;9.746;2023-03-01T02:11:10;103102.53;;;-1.71;100.00
4767;BME280;2397;53.576;9.746;2023-03-01T02:13:37;103098.28;;;-1.80;100.00
4767;BME280;2397;53.576;9.746;2023-03-01T02:16:11;103086.59;;;-1.95;100.00
4767;BME280;2397;53.576;9.746;2023-03-01T02:18:40;103091.22;;;-2.00;100.00
4767;BME280;2397;53.576;9.746;2023-03-01T02:21:30;103088.50;;;-2.01;100.00
4767;BME280;2397;53.576;9.746;2023-03-01T02:24:18;103093.09;;;-2.06;100.00
4767;BME280;2397;53.576;9.746;2023-03-01T02:26:51;103091.56;;;-2.13;100.00
4767;BME280;2397;53.576;9.746;2023-03-01T02:29:21;103094.53;;;-2.17;100.00
4767;BME280;2397;53.576;9.746;2023-03-01T02:31:47;103093.34;;;-2.20;100.00
4767;BME280;2397;53.576;9.746;2023-03-01T02:34:18;103100.19;;;-2.19;100.00
4767;BME280;2397;53.576;9.746;2023-03-01T02:36:49;103100.50;;;-2.16;100.00
4767;BME280;2397;53.576;9.746;2023-03-01T02:39:21;103103.03;;;-2.16;100.00
4767;BME280;2397;53.576;9.746;2023-03-01T02:41:51;103092.09;;;-2.24;100.00
4767;BME280;2397;53.576;9.746;2023-03-01T02:44:19;103091.09;;;-2.17;100.00
4767;BME280;2397;53.576;9.746;2023-03-01T02:46:49;103096.91;;;-2.18;100.00
4767;BME280;2397;53.576;9.746;2023-03-01T02:49:27;103095.09;;;-2.19;100.00
4767;BME280;2397;53.576;9.746;2023-03-01T02:52:18;103089.47;;;-2.17;100.00
4767;BME280;2397;53.576;9.746;2023-03-01T02:54:52;103088.56;;;-2.17;100.00
4767;BME280;2397;53.576;9.746;2023-03-01T02:57:22;103091.69;;;-2.20;100.00
4767;BME280;2397;53.576;9.746;2023-03-01T02:59:49;103088.25;;;-2.20;100.00
4767;BME280;2397;53.576;9.746;2023-03-01T03:02:22;103087.03;;;-2.24;100.00
4767;BME280;2397;53.576;9.746;2023-03-01T03:05:07;103082.72;;;-2.16;100.00
4767;BME280;2397;53.576;9.746;2023-03-01T03:07:36;103086.19;;;-2.16;100.00
4767;BME280;2397;53.576;9.746;2023-03-01T03:10:06;103076.09;;;-2.07;100.00
4767;BME280;2397;53.576;9.746;2023-03-01T03:12:32;103076.25;;;-2.05;100.00
4767;BME280;2397;53.576;9.746;2023-03-01T03:14:59;103081.13;;;-2.16;100.00
4767;BME280;2397;53.576;9.746;2023-03-01T03:17:26;103081.97;;;-2.24;100.00
4767;BME280;2397;53.576;9.746;2023-03-01T03:19:52;103077.44;;;-2.35;100.00
4767;BME280;2397;53.576;9.746;2023-03-01T03:22:18;103080.19;;;-2.25;100.00
4767;BME280;2397;53.576;9.746;2023-03-01T03:24:45;103071.59;;;-2.09;100.00
4767;BME280;2397;53.576;9.746;2023-03-01T03:27:11;103077.91;;;-1.97;100.00
4767;BME280;2397;53.576;9.746;2023-03-01T03:29:37;103069.13;;;-1.92;100.00
4767;BME280;2397;53.576;9.746;2023-03-01T03:32:04;103076.00;;;-1.91;100.00
4767;BME280;2397;53.576;9.746;2023-03-01T03:34:30;103072.69;;;-1.99;100.00
4767;BME280;2397;53.576;9.746;2023-03-01T03:36:57;103074.84;;;-2.10;100.00
4767;BME280;2397;53.576;9.746;2023-03-01T03:39:26;103068.75;;;-2.13;100.00
4767;BME280;2397;53.576;9.746;2023-03-01T03:41:53;103057.72;;;-2.04;100.00
4767;BME280;2397;53.576;9.746;2023-03-01T03:44:20;103063.56;;;-2.05;100.00
4767;BME280;2397;53.576;9.746;2023-03-01T03:46:47;103060.25;;;-2.04;100.00
4767;BME280;2397;53.576;9.746;2023-03-01T03:49:13;103058.38;;;-1.98;100.00
4767;BME280;2397;53.576;9.746;2023-03-01T03:51:40;103056.16;;;-1.86;100.00
4767;BME280;2397;53.576;9.746;2023-03-01T03:54:06;103050.31;;;-1.85;100.00
4767;BME280;2397;53.576;9.746;2023-03-01T03:56:32;103054.41;;;-1.79;100.00
4767;BME280;2397;53.576;9.746;2023-03-01T03:58:59;103063.97;;;-1.76;100.00
4767;BME280;2397;53.576;9.746;2023-03-01T04:01:26;103054.41;;;-1.79;100.00
4767;BME280;2397;53.576;9.746;2023-03-01T04:03:52;103045.75;;;-1.72;100.00
4767;BME280;2397;53.576;9.746;2023-03-01T04:06:20;103037.84;;;-1.66;100.00
4767;BME280;2397;53.576;9.746;2023-03-01T04:08:47;103042.66;;;-1.52;100.00
4767;BME280;2397;53.576;9.746;2023-03-01T04:11:17;103047.13;;;-1.58;100.00
4767;BME280;2397;53.576;9.746;2023-03-01T04:13:54;103036.34;;;-1.73;100.00
4767;BME280;2397;53.576;9.746;2023-03-01T04:16:21;103037.66;;;-1.77;100.00
4767;BME280;2397;53.576;9.746;2023-03-01T04:18:48;103029.75;;;-1.71;100.00
4767;BME280;2397;53.576;9.746;2023-03-01T04:21:15;103041.13;;;-1.59;100.00
4767;BME280;2397;53.576;9.746;2023-03-01T04:23:41;103043.09;;;-1.56;100.00
4767;BME280;2397;53.576;9.746;2023-03-01T04:26:08;103043.81;;;-1.57;100.00
4767;BME280;2397;53.576;9.746;2023-03-01T04:28:37;103036.84;;;-1.51;100.00
4767;BME280;2397;53.576;9.746;2023-03-01T04:31:09;103036.25;;;-1.39;100.00
4767;BME280;2397;53.576;9.746;2023-03-01T04:33:45;103023.13;;;-1.27;100.00
4767;BME280;2397;53.576;9.746;2023-03-01T04:36:14;103038.66;;;-1.32;100.00
4767;BME280;2397;53.576;9.746;2023-03-01T04:38:41;103045.38;;;-1.42;100.00
4767;BME280;2397;53.576;9.746;2023-03-01T04:41:10;103037.91;;;-1.40;100.00
4767;BME280;2397;53.576;9.746;2023-03-01T04:43:37;103041.94;;;-1.42;100.00
4767;BME280;2397;53.576;9.746;2023-03-01T04:46:06;103037.44;;;-1.45;100.00
4767;BME280;2397;53.576;9.746;2023-03-01T04:48:36;103030.28;;;-1.31;100.00
4767;BME280;2397;53.576;9.746;2023-03-01T04:51:03;103042.41;;;-1.37;100.00
4767;BME280;2397;53.576;9.746;2023-03-01T04:53:31;103043.13;;;-1.38;100.00
4767;BME280;2397;53.576;9.746;2023-03-01T04:55:59;103036.72;;;-1.26;100.00
4767;BME280;2397;53.576;9.746;2023-03-01T04:58:26;103028.66;;;-1.13;100.00
4767;BME280;2397;53.576;9.746;2023-03-01T05:00:53;103033.28;;;-1.27;100.00
4767;BME280;2397;53.576;9.746;2023-03-01T05:03:21;103036.84;;;-1.25;100.00
4767;BME280;2397;53.576;9.746;2023-03-01T05:05:49;103035.22;;;-1.24;100.00
4767;BME280;2397;53.576;9.746;2023-03-01T05:08:16;103040.47;;;-1.22;100.00
4767;BME280;2397;53.576;9.746;2023-03-01T05:10:50;103038.22;;;-1.02;100.00
4767;BME280;2397;53.576;9.746;2023-03-01T05:13:18;103038.53;;;-0.90;100.00
4767;BME280;2397;53.576;9.746;2023-03-01T05:15:49;103030.75;;;-1.00;100.00
4767;BME280;2397;53.576;9.746;2023-03-01T05:18:19;103035.69;;;-1.11;100.00
4767;BME280;2397;53.576;9.746;2023-03-01T05:20:46;103029.97;;;-0.99;100.00
4767;BME280;2397;53.576;9.746;2023-03-01T05:23:13;103020.72;;;-0.90;100.00
4767;BME280;2397;53.576;9.746;2023-03-01T05:25:39;103025.19;;;-0.96;100.00
4767;BME280;2397;53.576;9.746;2023-03-01T05:28:12;103023.72;;;-1.03;100.00
4767;BME280;2397;53.576;9.746;2023-03-01T05:30:40;103024.44;;;-0.95;100.00
4767;BME280;2397;53.576;9.746;2023-03-01T05:33:07;103032.06;;;-1.04;100.00
4767;BME280;2397;53.576;9.746;2023-03-01T05:35:41;103033.00;;;-1.12;100.00
4767;BME280;2397;53.576;9.746;2023-03-01T05:38:09;103035.97;;;-0.99;100.00
4767;BME280;2397;53.576;9.746;2023-03-01T05:40:40;103023.56;;;-0.87;100.00
4767;BME280;2397;53.576;9.746;2023-03-01T05:43:07;103024.00;;;-0.91;100.00
4767;BME280;2397;53.576;9.746;2023-03-01T05:45:36;103032.66;;;-0.98;100.00
4767;BME280;2397;53.576;9.746;2023-03-01T05:48:03;103026.84;;;-0.88;100.00
4767;BME280;2397;53.576;9.746;2023-03-01T05:50:36;103023.69;;;-0.77;100.00
4767;BME280;2397;53.576;9.746;2023-03-01T05:53:11;103012.94;;;-0.83;100.00
4767;BME280;2397;53.576;9.746;2023-03-01T05:55:38;103013.53;;;-0.85;100.00
4767;BME280;2397;53.576;9.746;2023-03-01T05:58:08;103011.28;;;-0.74;100.00
4767;BME280;2397;53.576;9.746;2023-03-01T06:00:35;103000.00;;;-0.58;100.00
4767;BME280;2397;53.576;9.746;2023-03-01T06:03:02;102999.13;;;-0.59;100.00
4767;BME280;2397;53.576;9.746;2023-03-01T06:05:28;103002.72;;;-0.65;100.00
4767;BME280;2397;53.576;9.746;2023-03-01T06:07:55;103011.13;;;-0.66;100.00
4767;BME280;2397;53.576;9.746;2023-03-01T06:10:22;103007.19;;;-0.63;100.00
4767;BME280;2397;53.576;9.746;2023-03-01T06:12:49;102998.69;;;-0.63;100.00
4767;BME280;2397;53.576;9.746;2023-03-01T06:15:16;103007.66;;;-0.67;100.00
4767;BME280;2397;53.576;9.746;2023-03-01T06:17:44;103005.13;;;-0.76;100.00
4767;BME280;2397;53.576;9.746;2023-03-01T06:22:39;103013.81;;;-0.65;100.00
4767;BME280;2397;53.576;9.746;2023-03-01T06:25:06;103001.84;;;-0.75;100.00
4767;BME280;2397;53.576;9.746;2023-03-01T06:27:32;103009.59;;;-0.64;100.00
4767;BME280;2397;53.576;9.746;2023-03-01T06:29:59;102999.44;;;-0.64;100.00
4767;BME280;2397;53.576;9.746;2023-03-01T06:32:25;102998.22;;;-0.59;100.00
4767;BME280;2397;53.576;9.746;2023-03-01T06:34:52;103004.50;;;-0.64;100.00
4767;BME280;2397;53.576;9.746;2023-03-01T06:37:18;102998.22;;;-0.59;100.00
4767;BME280;2397;53.576;9.746;2023-03-01T06:39:45;103000.88;;;-0.49;100.00
4767;BME280;2397;53.576;9.746;2023-03-01T06:42:11;102996.38;;;-0.43;100.00
4767;BME280;2397;53.576;9.746;2023-03-01T06:44:37;103002.06;;;-0.45;100.00
4767;BME280;2397;53.576;9.746;2023-03-01T06:47:04;103012.84;;;-0.48;100.00
4767;BME280;2397;53.576;9.746;2023-03-01T06:49:30;103018.09;;;-0.46;100.00
4767;BME280;2397;53.576;9.746;2023-03-01T06:51:57;103024.66;;;-0.40;100.00
4767;BME280;2397;53.576;9.746;2023-03-01T06:54:24;103028.34;;;-0.27;100.00
4767;BME280;2397;53.576;9.746;2023-03-01T06:56:50;103019.19;;;-0.25;100.00
4767;BME280;2397;53.576;9.746;2023-03-01T06:59:17;103023.56;;;-0.33;100.00
4767;BME280;2397;53.576;9.746;2023-03-01T07:01:44;103024.94;;;-0.28;100.00
4767;BME280;2397;53.576;9.746;2023-03-01T07:04:11;103029.97;;;-0.19;100.00
4767;BME280;2397;53.576;9.746;2023-03-01T07:06:37;103025.63;;;-0.20;100.00
4767;BME280;2397;53.576;9.746;2023-03-01T07:09:04;103024.41;;;-0.15;100.00
4767;BME280;2397;53.576;9.746;2023-03-01T07:11:30;103023.34;;;-0.08;100.00
4767;BME280;2397;53.576;9.746;2023-03-01T07:13:56;103021.97;;;-0.05;100.00
4767;BME280;2397;53.576;9.746;2023-03-01T07:16:24;103024.53;;;-0.13;100.00
4767;BME280;2397;53.576;9.746;2023-03-01T07:18:51;103015.66;;;0.01;100.00
4767;BME280;2397;53.576;9.746;2023-03-01T07:21:17;103013.97;;;0.10;100.00
4767;BME280;2397;53.576;9.746;2023-03-01T07:23:43;103009.56;;;0.17;100.00
4767;BME280;2397;53.576;9.746;2023-03-01T07:26:13;103010.78;;;0.21;100.00
4767;BME280;2397;53.576;9.746;2023-03-01T07:28:39;103009.38;;;0.25;100.00
4767;BME280;2397;53.576;9.746;2023-03-01T07:31:05;103009.19;;;0.32;100.00
4767;BME280;2397;53.576;9.746;2023-03-01T07:33:32;103006.50;;;0.30;100.00
4767;BME280;2397;53.576;9.746;2023-03-01T07:36:00;103007.13;;;0.28;100.00
4767;BME280;2397;53.576;9.746;2023-03-01T07:38:28;103000.94;;;0.34;100.00
4767;BME280;2397;53.576;9.746;2023-03-01T07:40:59;103000.16;;;0.35;100.00
4767;BME280;2397;53.576;9.746;2023-03-01T07:43:27;102996.13;;;0.38;100.00
4767;BME280;2397;53.576;9.746;2023-03-01T07:45:54;103003.81;;;0.29;100.00
4767;BME280;2397;53.576;9.746;2023-03-01T07:48:21;103000.66;;;0.31;100.00
4767;BME280;2397;53.576;9.746;2023-03-01T07:50:47;102998.34;;;0.43;100.00
4767;BME280;2397;53.576;9.746;2023-03-01T07:53:13;103001.25;;;0.57;100.00
4767;BME280;2397;53.576;9.746;2023-03-01T07:55:40;103002.41;;;0.60;100.00
4767;BME280;2397;53.576;9.746;2023-03-01T07:58:07;103003.22;;;0.69;100.00
4767;BME280;2397;53.576;9.746;2023-03-01T08:00:33;103006.28;;;0.65;100.00
4767;BME280;2397;53.576;9.746;2023-03-01T08:03:00;103006.69;;;0.70;100.00
4767;BME280;2397;53.576;9.746;2023-03-01T08:05:28;103012.13;;;0.83;100.00
4767;BME280;2397;53.576;9.746;2023-03-01T08:07:55;103006.41;;;0.86;100.00
4767;BME280;2397;53.576;9.746;2023-03-01T08:10:21;103001.59;;;0.89;100.00
4767;BME280;2397;53.576;9.746;2023-03-01T08:12:48;103004.19;;;0.99;100.00
4767;BME280;2397;53.576;9.746;2023-03-01T08:15:14;103007.78;;;1.31;100.00
4767;BME280;2397;53.576;9.746;2023-03-01T08:17:40;103008.56;;;1.69;100.00
4767;BME280;2397;53.576;9.746;2023-03-01T08:20:07;103006.59;;;2.17;100.00
4767;BME280;2397;53.576;9.746;2023-03-01T08:22:35;103010.31;;;2.31;100.00
4767;BME280;2397;53.576;9.746;2023-03-01T08:25:02;103017.31;;;2.02;100.00
4767;BME280;2397;53.576;9.746;2023-03-01T08:27:28;103013.97;;;1.83;100.00
4767;BME280;2397;53.576;9.746;2023-03-01T08:29:54;103019.00;;;1.62;100.00
4767;BME280;2397;53.576;9.746;2023-03-01T08:32:21;103023.59;;;1.56;100.00
4767;BME280;2397;53.576;9.746;2023-03-01T08:34:48;103020.78;;;1.53;100.00
4767;BME280;2397;53.576;9.746;2023-03-01T08:37:14;103014.22;;;1.46;100.00
4767;BME280;2397;53.576;9.746;2023-03-01T08:39:41;103010.06;;;1.57;100.00
4767;BME280;2397;53.576;9.746;2023-03-01T08:42:07;103003.19;;;1.66;100.00
4767;BME280;2397;53.576;9.746;2023-03-01T08:44:33;103002.56;;;1.79;100.00
4767;BME280;2397;53.576;9.746;2023-03-01T08:47:01;102998.66;;;1.93;100.00
4767;BME280;2397;53.576;9.746;2023-03-01T08:49:28;102996.09;;;1.93;100.00
4767;BME280;2397;53.576;9.746;2023-03-01T08:51:54;102999.28;;;2.01;100.00
4767;BME280;2397;53.576;9.746;2023-03-01T08:54:21;103000.72;;;1.97;100.00
4767;BME280;2397;53.576;9.746;2023-03-01T08:56:48;102999.53;;;1.93;100.00
4767;BME280;2397;53.576;9.746;2023-03-01T08:59:16;103004.53;;;2.02;100.00
4767;BME280;2397;53.576;9.746;2023-03-01T09:01:43;103010.41;;;2.01;100.00
4767;BME280;2397;53.576;9.746;2023-03-01T09:04:10;103006.34;;;2.14;100.00
4767;BME280;2397;53.576;9.746;2023-03-01T09:06:37;103003.91;;;2.15;100.00
4767;BME280;2397;53.576;9.746;2023-03-01T09:09:05;103012.34;;;2.24;100.00
4767;BME280;2397;53.576;9.746;2023-03-01T09:11:31;103007.38;;;2.36;100.00
4767;BME280;2397;53.576;9.746;2023-03-01T09:13:59;103005.81;;;2.49;100.00
4767;BME280;2397;53.576;9.746;2023-03-01T09:16:25;103007.38;;;2.57;100.00
4767;BME280;2397;53.576;9.746;2023-03-01T09:18:53;103003.94;;;2.46;100.00
4767;BME280;2397;53.576;9.746;2023-03-01T09:21:22;103003.44;;;2.40;100.00
4767;BME280;2397;53.576;9.746;2023-03-01T09:24:05;103013.78;;;2.41;100.00
4767;BME280;2397;53.576;9.746;2023-03-01T09:26:31;103005.81;;;2.38;100.00
4767;BME280;2397;53.576;9.746;2023-03-01T09:28:58;103011.47;;;2.34;100.00
4767;BME280;2397;53.576;9.746;2023-03-01T09:31:25;103003.56;;;2.31;100.00
4767;BME280;2397;53.576;9.746;2023-03-01T09:33:53;103011.09;;;2.40;100.00
4767;BME280;2397;53.576;9.746;2023-03-01T09:36:22;103006.38;;;2.44;100.00
4767;BME280;2397;53.576;9.746;2023-03-01T09:38:49;103007.50;;;2.48;100.00
4767;BME280;2397;53.576;9.746;2023-03-01T09:44:20;103005.56;;;2.56;100.00
4767;BME280;2397;53.576;9.746;2023-03-01T09:46:48;103001.50;;;2.58;100.00
4767;BME280;2397;53.576;9.746;2023-03-01T09:49:17;102992.25;;;2.70;100.00
4767;BME280;2397;53.576;9.746;2023-03-01T09:51:54;102995.06;;;2.73;100.00
4767;BME280;2397;53.576;9.746;2023-03-01T09:54:22;103002.59;;;2.82;100.00
4767;BME280;2397;53.576;9.746;2023-03-01T10:00:11;103003.06;;;2.98;100.00
4767;BME280;2397;53.576;9.746;2023-03-01T10:02:57;103005.22;;;3.04;100.00
4767;BME280;2397;53.576;9.746;2023-03-01T10:05:38;102999.69;;;3.20;100.00
4767;BME280;2397;53.576;9.746;2023-03-01T10:10:37;102991.13;;;3.42;100.00
4767;BME280;2397;53.576;9.746;2023-03-01T10:13:17;102992.50;;;3.48;100.00
4767;BME280;2397;53.576;9.746;2023-03-01T10:15:51;102994.84;;;3.45;100.00
4767;BME280;2397;53.576;9.746;2023-03-01T10:18:29;102998.88;;;3.54;100.00
4767;BME280;2397;53.576;9.746;2023-03-01T10:21:05;102996.03;;;3.61;100.00
4767;BME280;2397;53.576;9.746;2023-03-01T10:23:34;102997.78;;;3.72;100.00
4767;BME280;2397;53.576;9.746;2023-03-01T10:26:35;102996.56;;;3.79;100.00
4767;BME280;2397;53.576;9.746;2023-03-01T10:29:09;102997.72;;;3.82;100.00
4767;BME280;2397;53.576;9.746;2023-03-01T10:31:47;103000.50;;;3.85;100.00
4767;BME280;2397;53.576;9.746;2023-03-01T10:34:34;102996.72;;;3.92;100.00
4767;BME280;2397;53.576;9.746;2023-03-01T10:37:21;102996.00;;;4.05;100.00
4767;BME280;2397;53.576;9.746;2023-03-01T10:40:05;102985.69;;;4.15;100.00
4767;BME280;2397;53.576;9.746;2023-03-01T10:42:47;102988.19;;;4.37;100.00
4767;BME280;2397;53.576;9.746;2023-03-01T10:48:16;102971.72;;;4.57;100.00
4767;BME280;2397;53.576;9.746;2023-03-01T10:50:48;102976.88;;;4.57;100.00
4767;BME280;2397;53.576;9.746;2023-03-01T10:55:58;102979.78;;;4.74;100.00
4767;BME280;2397;53.576;9.746;2023-03-01T10:58:25;102986.22;;;4.81;100.00
4767;BME280;2397;53.576;9.746;2023-03-01T11:00:58;102978.19;;;4.76;100.00
4767;BME280;2397;53.576;9.746;2023-03-01T11:03:28;102980.88;;;4.89;100.00
4767;BME280;2397;53.576;9.746;2023-03-01T11:06:00;102977.66;;;4.92;100.00
4767;BME280;2397;53.576;9.746;2023-03-01T11:08:45;102975.97;;;4.92;100.00
4767;BME280;2397;53.576;9.746;2023-03-01T11:11:14;102980.22;;;4.92;100.00
4767;BME280;2397;53.576;9.746;2023-03-01T11:13:55;102971.06;;;4.72;100.00
4767;BME280;2397;53.576;9.746;2023-03-01T11:16:35;102971.63;;;4.80;100.00
4767;BME280;2397;53.576;9.746;2023-03-01T11:21:51;102968.81;;;5.00;100.00
4767;BME280;2397;53.576;9.746;2023-03-01T11:24:19;102967.59;;;5.07;100.00
4767;BME280;2397;53.576;9.746;2023-03-01T11:26:54;102968.34;;;5.18;100.00
4767;BME280;2397;53.576;9.746;2023-03-01T11:29:36;102960.41;;;5.26;100.00
4767;BME280;2397;53.576;9.746;2023-03-01T11:32:14;102967.34;;;5.27;100.00
4767;BME280;2397;53.576;9.746;2023-03-01T11:37:26;102960.41;;;5.63;100.00
4767;BME280;2397;53.576;9.746;2023-03-01T11:39:59;102954.78;;;5.81;100.00
4767;BME280;2397;53.576;9.746;2023-03-01T11:42:40;102957.38;;;5.94;100.00
4767;BME280;2397;53.576;9.746;2023-03-01T11:45:11;102957.19;;;6.17;100.00
4767;BME280;2397;53.576;9.746;2023-03-01T11:47:54;102948.25;;;6.37;100.00
4767;BME280;2397;53.576;9.746;2023-03-01T11:53:23;102952.72;;;6.79;100.00
4767;BME280;2397;53.576;9.746;2023-03-01T11:58:41;102941.88;;;7.12;100.00
4767;BME280;2397;53.576;9.746;2023-03-01T12:06:57;102931.97;;;7.31;100.00
4767;BME280;2397;53.576;9.746;2023-03-01T12:09:47;102920.00;;;7.75;100.00
4767;BME280;2397;53.576;9.746;2023-03-01T12:12:33;102920.72;;;8.02;100.00
4767;BME280;2397;53.576;9.746;2023-03-01T12:15:08;102917.19;;;8.00;100.00
4767;BME280;2397;53.576;9.746;2023-03-01T12:20:40;102912.84;;;8.29;100.00
4767;BME280;2397;53.576;9.746;2023-03-01T12:26:17;102912.75;;;8.57;100.00
4767;BME280;2397;53.576;9.746;2023-03-01T12:34:27;102891.97;;;9.02;100.00
4767;BME280;2397;53.576;9.746;2023-03-01T12:37:13;102889.34;;;9.34;100.00
4767;BME280;2397;53.576;9.746;2023-03-01T12:45:59;102880.13;;;9.55;100.00
4767;BME280;2397;53.576;9.746;2023-03-01T12:48:46;102867.75;;;9.66;100.00
4767;BME280;2397;53.576;9.746;2023-03-01T12:51:18;102870.69;;;9.56;100.00
4767;BME280;2397;53.576;9.746;2023-03-01T12:53:48;102867.72;;;9.82;100.00
4767;BME280;2397;53.576;9.746;2023-03-01T12:56:21;102862.78;;;9.87;100.00
4767;BME280;2397;53.576;9.746;2023-03-01T12:58:51;102857.38;;;9.82;100.00
4767;BME280;2397;53.576;9.746;2023-03-01T13:07:19;102854.53;;;10.12;100.00
4767;BME280;2397;53.576;9.746;2023-03-01T13:13:00;102853.50;;;9.91;100.00
4767;BME280;2397;53.576;9.746;2023-03-01T13:15:37;102852.00;;;10.30;100.00
4767;BME280;2397;53.576;9.746;2023-03-01T13:23:31;102842.16;;;10.41;100.00
4767;BME280;2397;53.576;9.746;2023-03-01T13:26:18;102846.59;;;10.62;97.94
4767;BME280;2397;53.576;9.746;2023-03-01T13:33:49;102847.22;;;10.38;95.78
4767;BME280;2397;53.576;9.746;2023-03-01T13:39:04;102831.81;;;10.41;99.83
4767;BME280;2397;53.576;9.746;2023-03-01T13:44:29;102836.63;;;10.51;98.89
4767;BME280;2397;53.576;9.746;2023-03-01T13:49:28;102823.66;;;10.51;100.00
4767;BME280;2397;53.576;9.746;2023-03-01T13:54:50;102825.38;;;10.88;95.42
4767;BME280;2397;53.576;9.746;2023-03-01T13:57:22;102826.66;;;10.98;93.85
4767;BME280;2397;53.576;9.746;2023-03-01T13:59:51;102815.28;;;10.95;94.08
4767;BME280;2397;53.576;9.746;2023-03-01T14:02:17;102817.53;;;10.87;93.30
4767;BME280;2397;53.576;9.746;2023-03-01T14:04:55;102813.88;;;10.28;94.95
4767;BME280;2397;53.576;9.746;2023-03-01T14:07:23;102806.06;;;10.08;98.30
4767;BME280;2397;53.576;9.746;2023-03-01T14:09:58;102797.59;;;10.12;100.00
4767;BME280;2397;53.576;9.746;2023-03-01T14:12:38;102798.69;;;10.34;100.00
4767;BME280;2397;53.576;9.746;2023-03-01T14:18:07;102797.81;;;10.33;97.62
4767;BME280;2397;53.576;9.746;2023-03-01T14:20:43;102793.47;;;10.16;97.89
4767;BME280;2397;53.576;9.746;2023-03-01T14:23:16;102791.25;;;10.06;98.41
4767;BME280;2397;53.576;9.746;2023-03-01T14:26:02;102790.78;;;9.78;99.83
4767;BME280;2397;53.576;9.746;2023-03-01T14:28:32;102789.91;;;9.78;100.00
4767;BME280;2397;53.576;9.746;2023-03-01T14:31:03;102785.31;;;9.72;99.68
4767;BME280;2397;53.576;9.746;2023-03-01T14:33:55;102789.19;;;9.80;99.46
4767;BME280;2397;53.576;9.746;2023-03-01T14:36:27;102782.38;;;9.82;100.00
4767;BME280;2397;53.576;9.746;2023-03-01T14:38:54;102781.06;;;9.91;100.00
4767;BME280;2397;53.576;9.746;2023-03-01T14:41:23;102772.47;;;9.92;100.00
4767;BME280;2397;53.576;9.746;2023-03-01T14:44:18;102777.31;;;9.67;100.00
4767;BME280;2397;53.576;9.746;2023-03-01T14:46:46;102773.56;;;9.44;100.00
4767;BME280;2397;53.576;9.746;2023-03-01T14:49:21;102769.34;;;9.28;100.00